Hitomimaru — JD4014 — position and weather

sailwx.info

Track history (hours):
 
Tides and Currents Weather Stations Pressure Air Temp Water Temp Dewpoint Dewpoint Depression Visibility Wind Speed Wind Dir Waves Ship Positions

Hitomimaru

Last reported at 2017-Oct-20 07:09 UTC. Time now 2017-Oct-20 10:58 UTC.
Position N 35°22' E 139°54'.

Length 35 m; draft 3.9 m.

Type: Tug. MMSI: 431007965.

Date/timePositionNaut miles runAvg speedWind from/ knotsBaromVisibWave heightAir tempDewpointWater temp
2017-Oct-20 07:09N 35°22' E 139°54'0 0.0
2017-Oct-20 07:00N 35°22' E 139°54'0 0.0
2017-Oct-20 06:28N 35°22' E 139°54'0 0.0
2017-Oct-20 05:54N 35°22' E 139°54'0 0.1
2017-Oct-20 05:21N 35°22' E 139°54'3 6.9
2017-Oct-20 04:56N 35°23' E 139°51'1 2.2
2017-Oct-20 04:31N 35°22' E 139°51'0 0.5
2017-Oct-20 04:01N 35°22' E 139°50'0 0.0
2017-Oct-20 03:30N 35°22' E 139°50'0 0.2
2017-Oct-20 03:01N 35°22' E 139°51'0 0.2
2017-Oct-20 02:31N 35°22' E 139°51'2 4.9
2017-Oct-20 02:00N 35°22' E 139°48'2 3.8
2017-Oct-20 01:30N 35°23' E 139°50'3 5.3
2017-Oct-20 01:00N 35°22' E 139°53'1 2.5
2017-Oct-20 00:29N 35°22' E 139°52'3 6.1
2017-Oct-20 00:00N 35°21' E 139°49'0 0.6
2017-Oct-19 23:31N 35°21' E 139°49'3 6.2
2017-Oct-19 23:00N 35°22' E 139°53'0 0.7
2017-Oct-19 22:29N 35°22' E 139°53'0 0.0
2017-Oct-19 21:48N 35°22' E 139°53'0 0.0
2017-Oct-19 21:30N 35°22' E 139°53'1 1.8
2017-Oct-19 21:00N 35°22' E 139°53'1 0.1
2017-Oct-19 11:08N 35°22' E 139°54'1 6.4
2017-Oct-19 11:00N 35°22' E 139°53'1 2.2
2017-Oct-19 10:30N 35°22' E 139°52'0 0.1
2017-Oct-19 09:59N 35°22' E 139°52'1 1.2
2017-Oct-19 09:30N 35°22' E 139°51'2 4.5
2017-Oct-19 09:00N 35°24' E 139°49'2 3.7
2017-Oct-19 08:30N 35°25' E 139°50'0 0.8
2017-Oct-19 08:00N 35°25' E 139°50'3 6.3
2017-Oct-19 07:30N 35°22' E 139°52'0 0.4
2017-Oct-19 07:00N 35°22' E 139°52'0 0.3
2017-Oct-19 06:30N 35°22' E 139°52'1 0.8
2017-Oct-19 05:45N 35°22' E 139°53'0 0.0
2017-Oct-19 05:29N 35°22' E 139°53'0 0.0
2017-Oct-19 04:57N 35°22' E 139°53'0 0.0
2017-Oct-19 04:26N 35°22' E 139°53'0 0.0
2017-Oct-19 04:00N 35°22' E 139°53'0 0.0
2017-Oct-19 02:24N 35°22' E 139°53'1 2.0
2017-Oct-19 01:59N 35°22' E 139°53'0 0.2
2017-Oct-19 01:30N 35°22' E 139°53'2 3.9
2017-Oct-19 01:00N 35°23' E 139°51'4 7.9
2017-Oct-19 00:30N 35°24' E 139°46'4 7.6
2017-Oct-19 00:00N 35°23' E 139°51'3 0.5
2017-Oct-18 18:50N 35°22' E 139°54'0 0.0
2017-Oct-18 17:34N 35°22' E 139°54'0 0.0
2017-Oct-18 17:28N 35°22' E 139°54'0 0.0
2017-Oct-18 16:50N 35°22' E 139°54'0 0.0
2017-Oct-18 16:30N 35°22' E 139°54'0 0.0
2017-Oct-18 15:59N 35°22' E 139°54'0 0.0
2017-Oct-18 15:30N 35°22' E 139°54'0 0.0
2017-Oct-18 15:00N 35°22' E 139°54'1 1.3
2017-Oct-18 14:01N 35°22' E 139°52'0 0.2
2017-Oct-18 13:30N 35°22' E 139°52'2 3.9
2017-Oct-18 12:53N 35°23' E 139°50'2 4.2
2017-Oct-18 12:30N 35°24' E 139°48'1 1.8
2017-Oct-18 12:01N 35°24' E 139°49'3 6.1
2017-Oct-18 11:29N 35°22' E 139°52'0 0.2
2017-Oct-18 11:00N 35°22' E 139°52'1 0.6
2017-Oct-18 08:48N 35°21' E 139°54'0 0.0
2017-Oct-18 08:22N 35°21' E 139°54'0 0.0
2017-Oct-18 06:24N 35°21' E 139°54'0 0.0
2017-Oct-18 05:58N 35°21' E 139°54'2 4.7
2017-Oct-18 05:28N 35°23' E 139°51'2 5.3
2017-Oct-18 05:00N 35°21' E 139°49'0 0.0
2017-Oct-18 04:30N 35°21' E 139°49'0 0.0
2017-Oct-18 04:00N 35°21' E 139°49'0 0.2
2017-Oct-18 03:30N 35°21' E 139°49'1 1.4
2017-Oct-18 03:00N 35°21' E 139°49'2 5.0
2017-Oct-18 02:30N 35°24' E 139°47'2 3.8
2017-Oct-18 02:00N 35°22' E 139°46'2 3.2
2017-Oct-18 01:30N 35°22' E 139°48'5 8.5
2017-Oct-18 00:58N 35°22' E 139°53'1 1.4
2017-Oct-18 00:29N 35°22' E 139°53'0 0.0
2017-Oct-18 00:00N 35°22' E 139°53'0 0.0
2017-Oct-17 22:54N 35°22' E 139°53'0 0.0
2017-Oct-17 22:21N 35°22' E 139°53'0 0.0
2017-Oct-17 21:50N 35°22' E 139°53'0 0.0
2017-Oct-17 21:30N 35°22' E 139°53'0 1.0
2017-Oct-17 21:00N 35°22' E 139°53'0 0.0
2017-Oct-16 21:30N 35°22' E 139°54'2 3.2
2017-Oct-16 21:00N 35°22' E 139°52'1 1.8
2017-Oct-16 20:30N 35°22' E 139°53'0 0.0
2017-Oct-16 15:19N 35°22' E 139°53'1 2.0
2017-Oct-16 15:00N 35°22' E 139°52'1 1.2
2017-Oct-16 13:59N 35°23' E 139°51'3 6.1
2017-Oct-16 13:30N 35°25' E 139°48'3 5.1
2017-Oct-16 13:00N 35°26' E 139°50'0 0.3
2017-Oct-16 12:30N 35°26' E 139°50'4 7.3
2017-Oct-16 12:00N 35°23' E 139°51'1 2.5
2017-Oct-16 11:30N 35°22' E 139°53'0 0.0
2017-Oct-16 11:01N 35°22' E 139°53'2 3.8
2017-Oct-16 10:30N 35°23' E 139°51'2 3.0
2017-Oct-16 09:43N 35°22' E 139°53'0 0.2
2017-Oct-16 09:30N 35°22' E 139°53'1 0.5
2017-Oct-16 07:43N 35°21' E 139°54'0 0.0
2017-Oct-16 07:30N 35°21' E 139°54'0 0.0
2017-Oct-16 06:59N 35°21' E 139°54'0 0.0
2017-Oct-16 06:27N 35°21' E 139°54'0 0.0
2017-Oct-16 06:00N 35°21' E 139°54'0 0.0
2017-Oct-16 05:30N 35°21' E 139°54'0 0.0
2017-Oct-16 05:00N 35°21' E 139°54'0 0.0
2017-Oct-16 04:29N 35°21' E 139°54'0 0.0
2017-Oct-16 04:00N 35°21' E 139°54'0 0.0
2017-Oct-16 03:29N 35°21' E 139°54'0 0.0
2017-Oct-16 03:00N 35°21' E 139°54'0 0.0
2017-Oct-16 02:15N 35°21' E 139°54'0 0.0
2017-Oct-15 22:37N 35°21' E 139°54'0 0.0
2017-Oct-15 22:30N 35°21' E 139°54'0 0.0
2017-Oct-15 21:55N 35°21' E 139°54'0 0.0
2017-Oct-15 20:46N 35°21' E 139°54'0 0.0
2017-Oct-15 11:37N 35°21' E 139°54'0 0.0
2017-Oct-15 01:02N 35°21' E 139°54'0 0.0
2017-Oct-15 00:11N 35°21' E 139°54'0 0.0
2017-Oct-14 23:55N 35°21' E 139°54'0 0.0
2017-Oct-14 23:30N 35°21' E 139°54'0 0.0
2017-Oct-14 21:08N 35°21' E 139°54'0 0.0
2017-Oct-14 20:52N 35°21' E 139°54'0 0.0
2017-Oct-14 14:20N 35°21' E 139°54'1 3.6
2017-Oct-14 14:00N 35°22' E 139°52'1 1.6
2017-Oct-14 13:29N 35°22' E 139°53'1 0.2
2017-Oct-14 09:42N 35°22' E 139°53'0 0.0
2017-Oct-14 09:30N 35°22' E 139°53'0 0.0
2017-Oct-14 09:00N 35°22' E 139°53'0 0.8
2017-Oct-14 08:27N 35°22' E 139°53'1 0.3
2017-Oct-14 06:26N 35°21' E 139°54'0 0.0
2017-Oct-14 05:56N 35°21' E 139°54'0 0.0
2017-Oct-14 05:05N 35°21' E 139°54'0 0.0
2017-Oct-14 04:39N 35°21' E 139°54'0 0.0
2017-Oct-14 04:29N 35°21' E 139°54'0 0.0
2017-Oct-13 23:14N 35°21' E 139°54'2 9.1
2017-Oct-13 22:59N 35°23' E 139°51'1 2.0
2017-Oct-13 22:31N 35°22' E 139°51'1 2.1
2017-Oct-13 22:00N 35°22' E 139°50'0 0.6
2017-Oct-13 21:29N 35°22' E 139°50'3 0.2
2017-Oct-13 07:13N 35°22' E 139°54'1 5.0
2017-Oct-13 06:59N 35°22' E 139°53'0 0.2
2017-Oct-13 06:30N 35°22' E 139°52'0 0.2
2017-Oct-13 05:55N 35°22' E 139°52'3 2.7
2017-Oct-13 04:54N 35°23' E 139°49'1 3.5
2017-Oct-13 04:30N 35°24' E 139°48'0 0.1
2017-Oct-13 04:01N 35°24' E 139°48'1 1.3
2017-Oct-13 03:30N 35°24' E 139°49'4 0.2
2017-Oct-12 08:09N 35°22' E 139°54'1 6.3
2017-Oct-12 07:58N 35°22' E 139°52'1 3.1
2017-Oct-12 07:31N 35°22' E 139°51'2 4.3
2017-Oct-12 07:01N 35°23' E 139°49'2 3.7
2017-Oct-12 06:30N 35°24' E 139°51'3 5.3
2017-Oct-12 06:00N 35°22' E 139°53'0 0.0
2017-Oct-12 05:30N 35°22' E 139°53'3 5.1
2017-Oct-12 05:00N 35°22' E 139°50'1 1.3
2017-Oct-12 04:31N 35°22' E 139°51'1 1.8
2017-Oct-12 04:00N 35°22' E 139°51'2 2.6
2017-Oct-12 03:08N 35°22' E 139°54'0 0.0
2017-Oct-12 02:45N 35°22' E 139°54'0 0.0
2017-Oct-12 02:30N 35°22' E 139°54'4 0.1
2017-Oct-10 20:52N 35°24' E 139°49'2 5.4
2017-Oct-10 20:30N 35°24' E 139°47'3 2.2
2017-Oct-10 19:09N 35°22' E 139°49'1 9.0
2017-Oct-10 19:00N 35°24' E 139°49'  
Track history (hours):
 
Tides and Currents Weather Stations Pressure Air Temp Water Temp Dewpoint Dewpoint Depression Visibility Wind Speed Wind Dir Waves Ship Positions

Hitomimaru

Last reported at 2017-Oct-20 07:09 UTC. Time now 2017-Oct-20 10:58 UTC.
Position N 35°22' E 139°54'.

Length 35 m; draft 3.9 m.

Type: Tug. MMSI: 431007965.

Date/timePositionNaut miles runAvg speedWind from/ knotsBaromVisibWave heightAir tempDewpointWater temp
2017-Oct-20 07:09N 35°22' E 139°54'0 0.0
2017-Oct-20 07:00N 35°22' E 139°54'0 0.0
2017-Oct-20 06:28N 35°22' E 139°54'0 0.0
2017-Oct-20 05:54N 35°22' E 139°54'0 0.1
2017-Oct-20 05:21N 35°22' E 139°54'3 6.9
2017-Oct-20 04:56N 35°23' E 139°51'1 2.2
2017-Oct-20 04:31N 35°22' E 139°51'0 0.5
2017-Oct-20 04:01N 35°22' E 139°50'0 0.0
2017-Oct-20 03:30N 35°22' E 139°50'0 0.2
2017-Oct-20 03:01N 35°22' E 139°51'0 0.2
2017-Oct-20 02:31N 35°22' E 139°51'2 4.9
2017-Oct-20 02:00N 35°22' E 139°48'2 3.8
2017-Oct-20 01:30N 35°23' E 139°50'3 5.3
2017-Oct-20 01:00N 35°22' E 139°53'1 2.5
2017-Oct-20 00:29N 35°22' E 139°52'3 6.1
2017-Oct-20 00:00N 35°21' E 139°49'0 0.6
2017-Oct-19 23:31N 35°21' E 139°49'3 6.2
2017-Oct-19 23:00N 35°22' E 139°53'0 0.7
2017-Oct-19 22:29N 35°22' E 139°53'0 0.0
2017-Oct-19 21:48N 35°22' E 139°53'0 0.0
2017-Oct-19 21:30N 35°22' E 139°53'1 1.8
2017-Oct-19 21:00N 35°22' E 139°53'1 0.1
2017-Oct-19 11:08N 35°22' E 139°54'1 6.4
2017-Oct-19 11:00N 35°22' E 139°53'1 2.2
2017-Oct-19 10:30N 35°22' E 139°52'0 0.1
2017-Oct-19 09:59N 35°22' E 139°52'1 1.2
2017-Oct-19 09:30N 35°22' E 139°51'2 4.5
2017-Oct-19 09:00N 35°24' E 139°49'2 3.7
2017-Oct-19 08:30N 35°25' E 139°50'0 0.8
2017-Oct-19 08:00N 35°25' E 139°50'3 6.3
2017-Oct-19 07:30N 35°22' E 139°52'0 0.4
2017-Oct-19 07:00N 35°22' E 139°52'0 0.3
2017-Oct-19 06:30N 35°22' E 139°52'1 0.8
2017-Oct-19 05:45N 35°22' E 139°53'0 0.0
2017-Oct-19 05:29N 35°22' E 139°53'0 0.0
2017-Oct-19 04:57N 35°22' E 139°53'0 0.0
2017-Oct-19 04:26N 35°22' E 139°53'0 0.0
2017-Oct-19 04:00N 35°22' E 139°53'0 0.0
2017-Oct-19 02:24N 35°22' E 139°53'1 2.0
2017-Oct-19 01:59N 35°22' E 139°53'0 0.2
2017-Oct-19 01:30N 35°22' E 139°53'2 3.9
2017-Oct-19 01:00N 35°23' E 139°51'4 7.9
2017-Oct-19 00:30N 35°24' E 139°46'4 7.6
2017-Oct-19 00:00N 35°23' E 139°51'3 0.5
2017-Oct-18 18:50N 35°22' E 139°54'0 0.0
2017-Oct-18 17:34N 35°22' E 139°54'0 0.0
2017-Oct-18 17:28N 35°22' E 139°54'0 0.0
2017-Oct-18 16:50N 35°22' E 139°54'0 0.0
2017-Oct-18 16:30N 35°22' E 139°54'0 0.0
2017-Oct-18 15:59N 35°22' E 139°54'0 0.0
2017-Oct-18 15:30N 35°22' E 139°54'0 0.0
2017-Oct-18 15:00N 35°22' E 139°54'1 1.3
2017-Oct-18 14:01N 35°22' E 139°52'0 0.2
2017-Oct-18 13:30N 35°22' E 139°52'2 3.9
2017-Oct-18 12:53N 35°23' E 139°50'2 4.2
2017-Oct-18 12:30N 35°24' E 139°48'1 1.8
2017-Oct-18 12:01N 35°24' E 139°49'3 6.1
2017-Oct-18 11:29N 35°22' E 139°52'0 0.2
2017-Oct-18 11:00N 35°22' E 139°52'1 0.6
2017-Oct-18 08:48N 35°21' E 139°54'0 0.0
2017-Oct-18 08:22N 35°21' E 139°54'0 0.0
2017-Oct-18 06:24N 35°21' E 139°54'0 0.0
2017-Oct-18 05:58N 35°21' E 139°54'2 4.7
2017-Oct-18 05:28N 35°23' E 139°51'2 5.3
2017-Oct-18 05:00N 35°21' E 139°49'0 0.0
2017-Oct-18 04:30N 35°21' E 139°49'0 0.0
2017-Oct-18 04:00N 35°21' E 139°49'0 0.2
2017-Oct-18 03:30N 35°21' E 139°49'1 1.4
2017-Oct-18 03:00N 35°21' E 139°49'2 5.0
2017-Oct-18 02:30N 35°24' E 139°47'2 3.8
2017-Oct-18 02:00N 35°22' E 139°46'2 3.2
2017-Oct-18 01:30N 35°22' E 139°48'5 8.5
2017-Oct-18 00:58N 35°22' E 139°53'1 1.4
2017-Oct-18 00:29N 35°22' E 139°53'0 0.0
2017-Oct-18 00:00N 35°22' E 139°53'0 0.0
2017-Oct-17 22:54N 35°22' E 139°53'0 0.0
2017-Oct-17 22:21N 35°22' E 139°53'0 0.0
2017-Oct-17 21:50N 35°22' E 139°53'0 0.0
2017-Oct-17 21:30N 35°22' E 139°53'0 1.0
2017-Oct-17 21:00N 35°22' E 139°53'0 0.0
2017-Oct-16 21:30N 35°22' E 139°54'2 3.2
2017-Oct-16 21:00N 35°22' E 139°52'1 1.8
2017-Oct-16 20:30N 35°22' E 139°53'0 0.0
2017-Oct-16 15:19N 35°22' E 139°53'1 2.0
2017-Oct-16 15:00N 35°22' E 139°52'1 1.2
2017-Oct-16 13:59N 35°23' E 139°51'3 6.1
2017-Oct-16 13:30N 35°25' E 139°48'3 5.1
2017-Oct-16 13:00N 35°26' E 139°50'0 0.3
2017-Oct-16 12:30N 35°26' E 139°50'4 7.3
2017-Oct-16 12:00N 35°23' E 139°51'1 2.5
2017-Oct-16 11:30N 35°22' E 139°53'0 0.0
2017-Oct-16 11:01N 35°22' E 139°53'2 3.8
2017-Oct-16 10:30N 35°23' E 139°51'2 3.0
2017-Oct-16 09:43N 35°22' E 139°53'0 0.2
2017-Oct-16 09:30N 35°22' E 139°53'1 0.5
2017-Oct-16 07:43N 35°21' E 139°54'0 0.0
2017-Oct-16 07:30N 35°21' E 139°54'0 0.0
2017-Oct-16 06:59N 35°21' E 139°54'0 0.0
2017-Oct-16 06:27N 35°21' E 139°54'0 0.0
2017-Oct-16 06:00N 35°21' E 139°54'0 0.0
2017-Oct-16 05:30N 35°21' E 139°54'0 0.0
2017-Oct-16 05:00N 35°21' E 139°54'0 0.0
2017-Oct-16 04:29N 35°21' E 139°54'0 0.0
2017-Oct-16 04:00N 35°21' E 139°54'0 0.0
2017-Oct-16 03:29N 35°21' E 139°54'0 0.0
2017-Oct-16 03:00N 35°21' E 139°54'0 0.0
2017-Oct-16 02:15N 35°21' E 139°54'0 0.0
2017-Oct-15 22:37N 35°21' E 139°54'0 0.0
2017-Oct-15 22:30N 35°21' E 139°54'0 0.0
2017-Oct-15 21:55N 35°21' E 139°54'0 0.0
2017-Oct-15 20:46N 35°21' E 139°54'0 0.0
2017-Oct-15 11:37N 35°21' E 139°54'0 0.0
2017-Oct-15 01:02N 35°21' E 139°54'0 0.0
2017-Oct-15 00:11N 35°21' E 139°54'0 0.0
2017-Oct-14 23:55N 35°21' E 139°54'0 0.0
2017-Oct-14 23:30N 35°21' E 139°54'0 0.0
2017-Oct-14 21:08N 35°21' E 139°54'0 0.0
2017-Oct-14 20:52N 35°21' E 139°54'0 0.0
2017-Oct-14 14:20N 35°21' E 139°54'1 3.6
2017-Oct-14 14:00N 35°22' E 139°52'1 1.6
2017-Oct-14 13:29N 35°22' E 139°53'1 0.2
2017-Oct-14 09:42N 35°22' E 139°53'0 0.0
2017-Oct-14 09:30N 35°22' E 139°53'0 0.0
2017-Oct-14 09:00N 35°22' E 139°53'0 0.8
2017-Oct-14 08:27N 35°22' E 139°53'1 0.3
2017-Oct-14 06:26N 35°21' E 139°54'0 0.0
2017-Oct-14 05:56N 35°21' E 139°54'0 0.0
2017-Oct-14 05:05N 35°21' E 139°54'0 0.0
2017-Oct-14 04:39N 35°21' E 139°54'0 0.0
2017-Oct-14 04:29N 35°21' E 139°54'0 0.0
2017-Oct-13 23:14N 35°21' E 139°54'2 9.1
2017-Oct-13 22:59N 35°23' E 139°51'1 2.0
2017-Oct-13 22:31N 35°22' E 139°51'1 2.1
2017-Oct-13 22:00N 35°22' E 139°50'0 0.6
2017-Oct-13 21:29N 35°22' E 139°50'3 0.2
2017-Oct-13 07:13N 35°22' E 139°54'1 5.0
2017-Oct-13 06:59N 35°22' E 139°53'0 0.2
2017-Oct-13 06:30N 35°22' E 139°52'0 0.2
2017-Oct-13 05:55N 35°22' E 139°52'3 2.7
2017-Oct-13 04:54N 35°23' E 139°49'1 3.5
2017-Oct-13 04:30N 35°24' E 139°48'0 0.1
2017-Oct-13 04:01N 35°24' E 139°48'1 1.3
2017-Oct-13 03:30N 35°24' E 139°49'4 0.2
2017-Oct-12 08:09N 35°22' E 139°54'1 6.3
2017-Oct-12 07:58N 35°22' E 139°52'1 3.1
2017-Oct-12 07:31N 35°22' E 139°51'2 4.3
2017-Oct-12 07:01N 35°23' E 139°49'2 3.7
2017-Oct-12 06:30N 35°24' E 139°51'3 5.3
2017-Oct-12 06:00N 35°22' E 139°53'0 0.0
2017-Oct-12 05:30N 35°22' E 139°53'3 5.1
2017-Oct-12 05:00N 35°22' E 139°50'1 1.3
2017-Oct-12 04:31N 35°22' E 139°51'1 1.8
2017-Oct-12 04:00N 35°22' E 139°51'2 2.6
2017-Oct-12 03:08N 35°22' E 139°54'0 0.0
2017-Oct-12 02:45N 35°22' E 139°54'0 0.0
2017-Oct-12 02:30N 35°22' E 139°54'4 0.1
2017-Oct-10 20:52N 35°24' E 139°49'2 5.4
2017-Oct-10 20:30N 35°24' E 139°47'3 2.2
2017-Oct-10 19:09N 35°22' E 139°49'1 9.0
2017-Oct-10 19:00N 35°24' E 139°49'  

Dump ship's entire track history